CheckWX is a tool to help pilots better visualize weather data.  It is not intended as a substitute for an official pre-flight weather briefing.

00:37:11 UTC

FALE METAR
King Shaka International Airport
Durban, South Africa
Current

37 mins ago

FALE 270000Z 21004KT 9999 FEW045 19/16 Q1023 NOSIG
Observed
Mar-27 @ 00:00 UTC
Wind
  • 210° at 4 KTS
Visibility
10,000+ meters
Flight Rules
VFR
Cloud Levels
  • Few at 4,500' AGL
Temperature
19°C / 66°F
Dewpoint
16°C / 61°F
Humidity
83%
Altimeter
30.21" Hg
Pressure
1022.92 hPa
Previous

2 hours ago

FALE 262300Z 23004KT 9999 SCT045 19/16 Q1023 NOSIG
Observed
Mar-26 @ 23:00 UTC
Wind
  • 230° at 4 KTS
Visibility
10,000+ meters
Flight Rules
VFR
Cloud Levels
  • Scattered at 4,500' AGL
Temperature
19°C / 66°F
Dewpoint
16°C / 61°F
Humidity
83%
Altimeter
30.21" Hg
Pressure
1022.92 hPa
Previous

3 hours ago

FALE 262200Z 23004KT 9999 SCT049 19/16 Q1024 NOSIG
Observed
Mar-26 @ 22:00 UTC
Wind
  • 230° at 4 KTS
Visibility
10,000+ meters
Flight Rules
VFR
Cloud Levels
  • Scattered at 4,900' AGL
Temperature
19°C / 66°F
Dewpoint
16°C / 61°F
Humidity
83%
Altimeter
30.24" Hg
Pressure
1023.92 hPa